sensor_id;sensor_type;location;lat;lon;timestamp;pressure;altitude;pressure_sealevel;temperature;humidity
31911;BME280;18457;52.432;16.914;2023-01-29T00:00:12;101515.92;;;0.84;77.44
31911;BME280;18457;52.432;16.914;2023-01-29T00:03:01;101515.69;;;0.77;77.61
31911;BME280;18457;52.432;16.914;2023-01-29T00:05:29;101513.04;;;0.82;77.51
31911;BME280;18457;52.432;16.914;2023-01-29T00:07:58;101503.97;;;0.77;77.64
31911;BME280;18457;52.432;16.914;2023-01-29T00:10:26;101492.14;;;0.75;77.63
31911;BME280;18457;52.432;16.914;2023-01-29T00:12:55;101488.97;;;0.70;77.47
31911;BME280;18457;52.432;16.914;2023-01-29T00:15:23;101489.02;;;0.66;77.78
31911;BME280;18457;52.432;16.914;2023-01-29T00:17:52;101484.96;;;0.62;77.91
31911;BME280;18457;52.432;16.914;2023-01-29T00:20:20;101475.50;;;0.61;77.93
31911;BME280;18457;52.432;16.914;2023-01-29T00:22:48;101468.43;;;0.67;77.77
31911;BME280;18457;52.432;16.914;2023-01-29T00:25:17;101461.88;;;0.79;77.37
31911;BME280;18457;52.432;16.914;2023-01-29T00:27:45;101467.94;;;0.79;77.06
31911;BME280;18457;52.432;16.914;2023-01-29T00:30:14;101460.98;;;0.73;77.26
31911;BME280;18457;52.432;16.914;2023-01-29T00:32:46;101458.00;;;0.75;77.09
31911;BME280;18457;52.432;16.914;2023-01-29T00:35:15;101456.86;;;0.62;77.17
31911;BME280;18457;52.432;16.914;2023-01-29T00:37:43;101455.23;;;0.55;77.39
31911;BME280;18457;52.432;16.914;2023-01-29T00:40:12;101452.70;;;0.54;77.46
31911;BME280;18457;52.432;16.914;2023-01-29T00:42:44;101448.77;;;0.64;77.09
31911;BME280;18457;52.432;16.914;2023-01-29T00:45:32;101443.38;;;0.73;76.43
31911;BME280;18457;52.432;16.914;2023-01-29T00:48:04;101443.45;;;0.76;76.48
31911;BME280;18457;52.432;16.914;2023-01-29T00:50:32;101439.39;;;0.82;76.00
31911;BME280;18457;52.432;16.914;2023-01-29T00:53:01;101446.52;;;0.82;76.01
31911;BME280;18457;52.432;16.914;2023-01-29T00:55:30;101448.23;;;0.80;75.76
31911;BME280;18457;52.432;16.914;2023-01-29T00:57:58;101445.36;;;0.79;75.46
31911;BME280;18457;52.432;16.914;2023-01-29T01:00:27;101445.33;;;0.78;75.34
31911;BME280;18457;52.432;16.914;2023-01-29T01:02:55;101449.17;;;0.65;75.90
31911;BME280;18457;52.432;16.914;2023-01-29T01:05:34;101457.59;;;0.68;75.84
31911;BME280;18457;52.432;16.914;2023-01-29T01:08:04;101465.02;;;0.67;75.99
31911;BME280;18457;52.432;16.914;2023-01-29T01:10:59;101469.35;;;0.57;76.19
31911;BME280;18457;52.432;16.914;2023-01-29T01:13:29;101461.70;;;0.63;75.88
31911;BME280;18457;52.432;16.914;2023-01-29T01:15:58;101457.50;;;0.65;75.88
31911;BME280;18457;52.432;16.914;2023-01-29T01:18:30;101453.61;;;0.55;76.15
31911;BME280;18457;52.432;16.914;2023-01-29T01:20:59;101450.88;;;0.53;76.22
31911;BME280;18457;52.432;16.914;2023-01-29T01:23:27;101445.82;;;0.50;76.28
31911;BME280;18457;52.432;16.914;2023-01-29T01:25:56;101446.73;;;0.45;76.47
31911;BME280;18457;52.432;16.914;2023-01-29T01:28:25;101447.23;;;0.45;76.53
31911;BME280;18457;52.432;16.914;2023-01-29T01:30:53;101442.88;;;0.47;76.53
31911;BME280;18457;52.432;16.914;2023-01-29T01:33:22;101439.25;;;0.56;76.34
31911;BME280;18457;52.432;16.914;2023-01-29T01:35:51;101435.23;;;0.63;75.78
31911;BME280;18457;52.432;16.914;2023-01-29T01:38:20;101438.03;;;0.67;75.73
31911;BME280;18457;52.432;16.914;2023-01-29T01:40:48;101437.48;;;0.67;75.53
31911;BME280;18457;52.432;16.914;2023-01-29T01:43:17;101446.85;;;0.65;75.80
31911;BME280;18457;52.432;16.914;2023-01-29T01:45:45;101449.19;;;0.66;75.71
31911;BME280;18457;52.432;16.914;2023-01-29T01:48:17;101445.43;;;0.66;75.87
31911;BME280;18457;52.432;16.914;2023-01-29T01:50:50;101436.09;;;0.62;76.00
31911;BME280;18457;52.432;16.914;2023-01-29T01:53:22;101434.92;;;0.65;75.88
31911;BME280;18457;52.432;16.914;2023-01-29T01:55:54;101435.91;;;0.62;75.98
31911;BME280;18457;52.432;16.914;2023-01-29T01:58:26;101436.87;;;0.64;76.07
31911;BME280;18457;52.432;16.914;2023-01-29T02:00:57;101438.08;;;0.58;76.11
31911;BME280;18457;52.432;16.914;2023-01-29T02:03:27;101441.04;;;0.56;76.42
31911;BME280;18457;52.432;16.914;2023-01-29T02:06:17;101435.83;;;0.60;76.49
31911;BME280;18457;52.432;16.914;2023-01-29T02:09:07;101434.77;;;0.60;76.55
31911;BME280;18457;52.432;16.914;2023-01-29T02:11:55;101434.48;;;0.62;76.55
31911;BME280;18457;52.432;16.914;2023-01-29T02:14:24;101435.67;;;0.66;76.55
31911;BME280;18457;52.432;16.914;2023-01-29T02:16:53;101422.44;;;0.63;76.52
31911;BME280;18457;52.432;16.914;2023-01-29T02:19:27;101427.20;;;0.62;76.87
31911;BME280;18457;52.432;16.914;2023-01-29T02:22:25;101427.30;;;0.60;76.84
31911;BME280;18457;52.432;16.914;2023-01-29T02:25:16;101423.95;;;0.61;76.82
31911;BME280;18457;52.432;16.914;2023-01-29T02:28:30;101435.11;;;0.49;77.63
31911;BME280;18457;52.432;16.914;2023-01-29T02:31:07;101439.59;;;0.50;77.83
31911;BME280;18457;52.432;16.914;2023-01-29T02:33:47;101441.02;;;0.61;77.65
31911;BME280;18457;52.432;16.914;2023-01-29T02:36:29;101428.17;;;0.60;77.65
31911;BME280;18457;52.432;16.914;2023-01-29T02:39:06;101424.05;;;0.64;77.66
31911;BME280;18457;52.432;16.914;2023-01-29T02:41:43;101418.21;;;0.65;77.56
31911;BME280;18457;52.432;16.914;2023-01-29T02:44:19;101421.54;;;0.52;78.28
31911;BME280;18457;52.432;16.914;2023-01-29T02:46:56;101412.03;;;0.55;78.50
31911;BME280;18457;52.432;16.914;2023-01-29T02:49:32;101412.56;;;0.55;78.78
31911;BME280;18457;52.432;16.914;2023-01-29T02:52:08;101415.77;;;0.55;78.64
31911;BME280;18457;52.432;16.914;2023-01-29T02:54:45;101419.86;;;0.61;78.34
31911;BME280;18457;52.432;16.914;2023-01-29T02:57:18;101423.86;;;0.58;78.06
31911;BME280;18457;52.432;16.914;2023-01-29T02:59:51;101423.09;;;0.51;78.45
31911;BME280;18457;52.432;16.914;2023-01-29T03:02:28;101419.48;;;0.60;78.02
31911;BME280;18457;52.432;16.914;2023-01-29T03:05:05;101412.59;;;0.61;77.96
31911;BME280;18457;52.432;16.914;2023-01-29T03:07:42;101411.72;;;0.57;77.80
31911;BME280;18457;52.432;16.914;2023-01-29T03:10:22;101410.27;;;0.55;78.25
31911;BME280;18457;52.432;16.914;2023-01-29T03:12:58;101408.42;;;0.59;77.99
31911;BME280;18457;52.432;16.914;2023-01-29T03:15:31;101410.17;;;0.58;77.94
31911;BME280;18457;52.432;16.914;2023-01-29T03:18:38;101403.06;;;0.63;77.95
31911;BME280;18457;52.432;16.914;2023-01-29T03:21:16;101394.30;;;0.67;77.47
31911;BME280;18457;52.432;16.914;2023-01-29T03:24:07;101389.79;;;0.71;77.15
31911;BME280;18457;52.432;16.914;2023-01-29T03:26:57;101380.84;;;0.75;76.98
31911;BME280;18457;52.432;16.914;2023-01-29T03:29:46;101378.08;;;0.77;76.69
31911;BME280;18457;52.432;16.914;2023-01-29T03:32:58;101365.59;;;0.65;76.71
31911;BME280;18457;52.432;16.914;2023-01-29T03:35:32;101365.95;;;0.65;76.82
31911;BME280;18457;52.432;16.914;2023-01-29T03:38:06;101371.27;;;0.65;76.55
31911;BME280;18457;52.432;16.914;2023-01-29T03:40:38;101361.28;;;0.63;76.72
31911;BME280;18457;52.432;16.914;2023-01-29T03:43:16;101354.45;;;0.67;76.60
31911;BME280;18457;52.432;16.914;2023-01-29T03:45:56;101346.08;;;0.72;76.30
31911;BME280;18457;52.432;16.914;2023-01-29T03:48:33;101346.73;;;0.75;75.96
31911;BME280;18457;52.432;16.914;2023-01-29T03:51:15;101353.17;;;0.71;75.95
31911;BME280;18457;52.432;16.914;2023-01-29T03:53:50;101346.56;;;0.70;76.19
31911;BME280;18457;52.432;16.914;2023-01-29T03:56:31;101341.91;;;0.75;76.09
31911;BME280;18457;52.432;16.914;2023-01-29T03:59:05;101333.71;;;0.81;76.03
31911;BME280;18457;52.432;16.914;2023-01-29T04:02:05;101339.55;;;0.79;76.26
31911;BME280;18457;52.432;16.914;2023-01-29T04:04:37;101338.80;;;0.72;76.93
31911;BME280;18457;52.432;16.914;2023-01-29T04:07:11;101337.25;;;0.74;76.91
31911;BME280;18457;52.432;16.914;2023-01-29T04:09:44;101330.31;;;0.74;76.65
31911;BME280;18457;52.432;16.914;2023-01-29T04:12:16;101325.05;;;0.71;76.99
31911;BME280;18457;52.432;16.914;2023-01-29T04:14:49;101325.06;;;0.65;77.38
31911;BME280;18457;52.432;16.914;2023-01-29T04:17:22;101325.79;;;0.66;76.99
31911;BME280;18457;52.432;16.914;2023-01-29T04:20:05;101319.30;;;0.68;77.10
31911;BME280;18457;52.432;16.914;2023-01-29T04:22:36;101312.96;;;0.76;76.78
31911;BME280;18457;52.432;16.914;2023-01-29T04:25:06;101307.94;;;0.81;76.68
31911;BME280;18457;52.432;16.914;2023-01-29T04:27:42;101301.45;;;0.72;77.05
31911;BME280;18457;52.432;16.914;2023-01-29T04:30:22;101294.45;;;0.70;77.33
31911;BME280;18457;52.432;16.914;2023-01-29T04:33:00;101295.34;;;0.69;77.48
31911;BME280;18457;52.432;16.914;2023-01-29T04:35:34;101302.13;;;0.71;77.41
31911;BME280;18457;52.432;16.914;2023-01-29T04:38:14;101298.24;;;0.72;77.19
31911;BME280;18457;52.432;16.914;2023-01-29T04:40:49;101295.98;;;0.73;77.26
31911;BME280;18457;52.432;16.914;2023-01-29T04:43:26;101289.41;;;0.68;77.79
31911;BME280;18457;52.432;16.914;2023-01-29T04:46:07;101285.45;;;0.66;78.42
31911;BME280;18457;52.432;16.914;2023-01-29T04:48:46;101287.21;;;0.66;79.09
31911;BME280;18457;52.432;16.914;2023-01-29T04:51:24;101274.52;;;0.63;79.84
31911;BME280;18457;52.432;16.914;2023-01-29T04:54:00;101264.95;;;0.64;80.51
31911;BME280;18457;52.432;16.914;2023-01-29T04:56:37;101267.45;;;0.70;80.92
31911;BME280;18457;52.432;16.914;2023-01-29T04:59:08;101264.98;;;0.71;81.06
31911;BME280;18457;52.432;16.914;2023-01-29T05:01:38;101265.73;;;0.73;81.28
31911;BME280;18457;52.432;16.914;2023-01-29T05:04:09;101271.39;;;0.71;81.60
31911;BME280;18457;52.432;16.914;2023-01-29T05:06:41;101274.67;;;0.69;81.82
31911;BME280;18457;52.432;16.914;2023-01-29T05:09:14;101276.64;;;0.69;81.51
31911;BME280;18457;52.432;16.914;2023-01-29T05:11:45;101269.68;;;0.74;81.46
31911;BME280;18457;52.432;16.914;2023-01-29T05:14:16;101268.43;;;0.74;81.43
31911;BME280;18457;52.432;16.914;2023-01-29T05:16:50;101262.27;;;0.76;81.36
31911;BME280;18457;52.432;16.914;2023-01-29T05:19:19;101251.60;;;0.70;81.51
31911;BME280;18457;52.432;16.914;2023-01-29T05:21:49;101246.42;;;0.75;81.23
31911;BME280;18457;52.432;16.914;2023-01-29T05:24:19;101248.58;;;0.70;81.05
31911;BME280;18457;52.432;16.914;2023-01-29T05:26:50;101254.52;;;0.78;80.62
31911;BME280;18457;52.432;16.914;2023-01-29T05:29:37;101265.20;;;0.79;80.41
31911;BME280;18457;52.432;16.914;2023-01-29T05:32:07;101264.86;;;0.79;80.21
31911;BME280;18457;52.432;16.914;2023-01-29T05:34:35;101256.19;;;0.81;80.03
31911;BME280;18457;52.432;16.914;2023-01-29T05:37:04;101256.92;;;0.75;80.18
31911;BME280;18457;52.432;16.914;2023-01-29T05:39:32;101255.36;;;0.76;80.12
31911;BME280;18457;52.432;16.914;2023-01-29T05:42:00;101250.93;;;0.71;79.96
31911;BME280;18457;52.432;16.914;2023-01-29T05:44:29;101256.84;;;0.61;80.14
31911;BME280;18457;52.432;16.914;2023-01-29T05:46:57;101261.36;;;0.64;80.30
31911;BME280;18457;52.432;16.914;2023-01-29T05:49:26;101264.88;;;0.62;80.25
31911;BME280;18457;52.432;16.914;2023-01-29T05:51:54;101272.36;;;0.69;80.05
31911;BME280;18457;52.432;16.914;2023-01-29T05:54:23;101271.64;;;0.68;80.20
31911;BME280;18457;52.432;16.914;2023-01-29T05:56:51;101266.70;;;0.70;80.10
31911;BME280;18457;52.432;16.914;2023-01-29T05:59:20;101265.04;;;0.67;80.48
31911;BME280;18457;52.432;16.914;2023-01-29T06:01:48;101260.61;;;0.74;80.36
31911;BME280;18457;52.432;16.914;2023-01-29T06:04:17;101263.14;;;0.75;80.81
31911;BME280;18457;52.432;16.914;2023-01-29T06:06:45;101271.52;;;0.82;81.48
31911;BME280;18457;52.432;16.914;2023-01-29T06:09:14;101273.45;;;0.69;83.12
31911;BME280;18457;52.432;16.914;2023-01-29T06:11:42;101288.59;;;0.52;85.47
31911;BME280;18457;52.432;16.914;2023-01-29T06:14:11;101291.71;;;0.44;87.31
31911;BME280;18457;52.432;16.914;2023-01-29T06:16:39;101290.38;;;0.47;87.67
31911;BME280;18457;52.432;16.914;2023-01-29T06:19:07;101284.82;;;0.57;87.66
31911;BME280;18457;52.432;16.914;2023-01-29T06:21:36;101282.52;;;0.64;87.63
31911;BME280;18457;52.432;16.914;2023-01-29T06:24:05;101274.85;;;0.68;87.99
31911;BME280;18457;52.432;16.914;2023-01-29T06:26:34;101274.20;;;0.71;88.75
31911;BME280;18457;52.432;16.914;2023-01-29T06:29:02;101280.48;;;0.61;89.99
31911;BME280;18457;52.432;16.914;2023-01-29T06:31:31;101284.42;;;0.62;90.21
31911;BME280;18457;52.432;16.914;2023-01-29T06:34:07;101294.58;;;0.51;90.85
31911;BME280;18457;52.432;16.914;2023-01-29T06:36:35;101303.48;;;0.51;91.35
31911;BME280;18457;52.432;16.914;2023-01-29T06:39:04;101311.14;;;0.52;91.23
31911;BME280;18457;52.432;16.914;2023-01-29T06:41:33;101304.79;;;0.48;91.44
31911;BME280;18457;52.432;16.914;2023-01-29T06:44:01;101309.20;;;0.47;91.99
31911;BME280;18457;52.432;16.914;2023-01-29T06:46:30;101314.02;;;0.35;92.85
31911;BME280;18457;52.432;16.914;2023-01-29T06:48:59;101308.48;;;0.35;93.12
31911;BME280;18457;52.432;16.914;2023-01-29T06:51:27;101309.09;;;0.43;93.19
31911;BME280;18457;52.432;16.914;2023-01-29T06:53:56;101300.86;;;0.47;93.19
31911;BME280;18457;52.432;16.914;2023-01-29T06:56:26;101293.20;;;0.47;93.02
31911;BME280;18457;52.432;16.914;2023-01-29T06:58:54;101294.20;;;0.50;92.64
31911;BME280;18457;52.432;16.914;2023-01-29T07:01:23;101292.98;;;0.62;92.05
31911;BME280;18457;52.432;16.914;2023-01-29T07:04:04;101295.42;;;0.66;91.83
31911;BME280;18457;52.432;16.914;2023-01-29T07:06:33;101291.69;;;0.67;91.66
31911;BME280;18457;52.432;16.914;2023-01-29T07:09:02;101284.64;;;0.68;91.62
31911;BME280;18457;52.432;16.914;2023-01-29T07:11:31;101276.55;;;0.66;91.93
31911;BME280;18457;52.432;16.914;2023-01-29T07:14:01;101264.28;;;0.72;91.88
31911;BME280;18457;52.432;16.914;2023-01-29T07:16:34;101267.56;;;0.57;92.53
31911;BME280;18457;52.432;16.914;2023-01-29T07:19:04;101267.29;;;0.59;92.84
31911;BME280;18457;52.432;16.914;2023-01-29T07:21:33;101277.63;;;0.54;93.43
31911;BME280;18457;52.432;16.914;2023-01-29T07:24:01;101277.78;;;0.65;93.14
31911;BME280;18457;52.432;16.914;2023-01-29T07:26:30;101262.39;;;0.74;92.81
31911;BME280;18457;52.432;16.914;2023-01-29T07:28:58;101258.80;;;0.78;92.58
31911;BME280;18457;52.432;16.914;2023-01-29T07:31:27;101261.39;;;0.70;92.62
31911;BME280;18457;52.432;16.914;2023-01-29T07:33:56;101253.58;;;0.71;93.22
31911;BME280;18457;52.432;16.914;2023-01-29T07:36:24;101251.27;;;0.76;93.09
31911;BME280;18457;52.432;16.914;2023-01-29T07:38:54;101252.42;;;0.68;93.19
31911;BME280;18457;52.432;16.914;2023-01-29T07:41:22;101255.95;;;0.79;92.57
31911;BME280;18457;52.432;16.914;2023-01-29T07:43:51;101258.55;;;0.77;92.57
31911;BME280;18457;52.432;16.914;2023-01-29T07:46:19;101260.31;;;0.64;93.14
31911;BME280;18457;52.432;16.914;2023-01-29T07:48:48;101249.61;;;0.69;93.07
31911;BME280;18457;52.432;16.914;2023-01-29T07:51:17;101254.75;;;0.62;93.33
31911;BME280;18457;52.432;16.914;2023-01-29T07:53:46;101259.69;;;0.55;93.63
31911;BME280;18457;52.432;16.914;2023-01-29T07:56:15;101260.56;;;0.61;93.81
31911;BME280;18457;52.432;16.914;2023-01-29T07:58:43;101263.77;;;0.72;93.29
31911;BME280;18457;52.432;16.914;2023-01-29T08:01:11;101263.42;;;0.79;92.88
31911;BME280;18457;52.432;16.914;2023-01-29T08:03:40;101264.42;;;0.77;92.78
31911;BME280;18457;52.432;16.914;2023-01-29T08:06:10;101272.14;;;0.73;93.25
31911;BME280;18457;52.432;16.914;2023-01-29T08:08:39;101278.77;;;0.74;92.81
31911;BME280;18457;52.432;16.914;2023-01-29T08:11:07;101276.00;;;0.59;93.49
31911;BME280;18457;52.432;16.914;2023-01-29T08:13:36;101281.52;;;0.60;93.93
31911;BME280;18457;52.432;16.914;2023-01-29T08:16:06;101288.52;;;0.62;94.22
31911;BME280;18457;52.432;16.914;2023-01-29T08:18:36;101278.77;;;0.63;94.23
31911;BME280;18457;52.432;16.914;2023-01-29T08:21:05;101284.71;;;0.65;94.36
31911;BME280;18457;52.432;16.914;2023-01-29T08:23:34;101283.67;;;0.61;94.55
31911;BME280;18457;52.432;16.914;2023-01-29T08:26:02;101279.19;;;0.65;94.33
31911;BME280;18457;52.432;16.914;2023-01-29T08:28:31;101272.36;;;0.81;93.76
31911;BME280;18457;52.432;16.914;2023-01-29T08:31:01;101272.54;;;0.92;92.97
31911;BME280;18457;52.432;16.914;2023-01-29T08:33:30;101264.41;;;1.01;92.55
31911;BME280;18457;52.432;16.914;2023-01-29T08:36:09;101257.13;;;1.01;92.54
31911;BME280;18457;52.432;16.914;2023-01-29T08:38:38;101252.90;;;1.03;92.10
31911;BME280;18457;52.432;16.914;2023-01-29T08:41:07;101241.44;;;1.07;91.93
31911;BME280;18457;52.432;16.914;2023-01-29T08:43:35;101229.45;;;1.11;91.82
31911;BME280;18457;52.432;16.914;2023-01-29T08:46:05;101222.83;;;1.16;91.57
31911;BME280;18457;52.432;16.914;2023-01-29T08:48:34;101222.71;;;1.24;91.39
31911;BME280;18457;52.432;16.914;2023-01-29T08:51:03;101216.95;;;1.22;91.69
31911;BME280;18457;52.432;16.914;2023-01-29T08:53:32;101211.44;;;1.22;91.63
31911;BME280;18457;52.432;16.914;2023-01-29T08:56:01;101218.67;;;1.13;91.72
31911;BME280;18457;52.432;16.914;2023-01-29T08:58:30;101226.19;;;1.08;92.14
31911;BME280;18457;52.432;16.914;2023-01-29T09:01:06;101231.97;;;1.05;92.67
31911;BME280;18457;52.432;16.914;2023-01-29T09:03:35;101220.41;;;1.05;92.71
31911;BME280;18457;52.432;16.914;2023-01-29T09:06:04;101213.45;;;1.11;92.82
31911;BME280;18457;52.432;16.914;2023-01-29T09:08:32;101208.52;;;1.13;92.65
31911;BME280;18457;52.432;16.914;2023-01-29T09:11:02;101210.42;;;1.17;92.46
31911;BME280;18457;52.432;16.914;2023-01-29T09:13:30;101213.71;;;1.14;92.94
31911;BME280;18457;52.432;16.914;2023-01-29T09:16:00;101215.08;;;1.05;93.30
31911;BME280;18457;52.432;16.914;2023-01-29T09:18:30;101218.04;;;1.16;93.23
31911;BME280;18457;52.432;16.914;2023-01-29T09:20:58;101225.59;;;1.19;92.87
31911;BME280;18457;52.432;16.914;2023-01-29T09:23:27;101224.75;;;1.21;92.67
31911;BME280;18457;52.432;16.914;2023-01-29T09:25:56;101222.73;;;1.06;93.28
31911;BME280;18457;52.432;16.914;2023-01-29T09:28:25;101223.70;;;1.09;93.30
31911;BME280;18457;52.432;16.914;2023-01-29T09:30:54;101222.63;;;1.08;93.57
31911;BME280;18457;52.432;16.914;2023-01-29T09:33:23;101221.63;;;1.17;93.10
31911;BME280;18457;52.432;16.914;2023-01-29T09:35:52;101220.89;;;1.10;93.15
31911;BME280;18457;52.432;16.914;2023-01-29T09:38:20;101226.34;;;1.07;93.55
31911;BME280;18457;52.432;16.914;2023-01-29T09:40:56;101226.02;;;0.96;93.82
31911;BME280;18457;52.432;16.914;2023-01-29T09:43:36;101226.36;;;1.02;93.75
31911;BME280;18457;52.432;16.914;2023-01-29T09:46:16;101224.72;;;1.13;93.25
31911;BME280;18457;52.432;16.914;2023-01-29T09:48:51;101219.69;;;1.04;93.99
31911;BME280;18457;52.432;16.914;2023-01-29T09:51:27;101219.57;;;1.14;94.13
31911;BME280;18457;52.432;16.914;2023-01-29T09:54:07;101225.51;;;1.16;93.74
31911;BME280;18457;52.432;16.914;2023-01-29T09:56:41;101225.95;;;1.06;94.45
31911;BME280;18457;52.432;16.914;2023-01-29T09:59:17;101229.31;;;0.99;94.77
31911;BME280;18457;52.432;16.914;2023-01-29T10:01:56;101228.30;;;0.95;94.90
31911;BME280;18457;52.432;16.914;2023-01-29T10:04:48;101223.51;;;1.02;95.03
31911;BME280;18457;52.432;16.914;2023-01-29T10:07:30;101221.20;;;1.15;94.19
31911;BME280;18457;52.432;16.914;2023-01-29T10:10:29;101211.32;;;1.25;93.40
31911;BME280;18457;52.432;16.914;2023-01-29T10:13:10;101205.39;;;1.29;92.98
31911;BME280;18457;52.432;16.914;2023-01-29T10:15:48;101192.61;;;1.30;92.80
31911;BME280;18457;52.432;16.914;2023-01-29T10:18:44;101188.98;;;1.34;92.62
31911;BME280;18457;52.432;16.914;2023-01-29T10:21:25;101191.24;;;1.26;93.19
31911;BME280;18457;52.432;16.914;2023-01-29T10:24:03;101187.23;;;1.16;93.51
31911;BME280;18457;52.432;16.914;2023-01-29T10:26:35;101185.64;;;1.16;93.67
31911;BME280;18457;52.432;16.914;2023-01-29T10:29:06;101177.61;;;1.08;94.15
31911;BME280;18457;52.432;16.914;2023-01-29T10:31:38;101177.70;;;0.98;94.69
31911;BME280;18457;52.432;16.914;2023-01-29T10:34:12;101168.53;;;1.08;94.73
31911;BME280;18457;52.432;16.914;2023-01-29T10:36:44;101160.59;;;1.04;94.84
31911;BME280;18457;52.432;16.914;2023-01-29T10:39:17;101158.72;;;1.07;94.83
31911;BME280;18457;52.432;16.914;2023-01-29T10:42:03;101159.30;;;1.02;95.09
31911;BME280;18457;52.432;16.914;2023-01-29T10:44:42;101164.55;;;1.12;95.00
31911;BME280;18457;52.432;16.914;2023-01-29T10:47:45;101149.98;;;1.12;94.70
31911;BME280;18457;52.432;16.914;2023-01-29T10:50:30;101145.79;;;1.23;94.21
31911;BME280;18457;52.432;16.914;2023-01-29T10:53:15;101146.13;;;1.22;93.90
31911;BME280;18457;52.432;16.914;2023-01-29T10:55:54;101140.50;;;1.24;94.07
31911;BME280;18457;52.432;16.914;2023-01-29T10:58:31;101131.80;;;1.39;93.23
31911;BME280;18457;52.432;16.914;2023-01-29T11:01:02;101131.78;;;1.32;93.27
31911;BME280;18457;52.432;16.914;2023-01-29T11:03:32;101131.23;;;1.30;93.51
31911;BME280;18457;52.432;16.914;2023-01-29T11:06:10;101132.18;;;1.26;93.82
31911;BME280;18457;52.432;16.914;2023-01-29T11:08:47;101129.06;;;1.30;93.83
31911;BME280;18457;52.432;16.914;2023-01-29T11:11:20;101129.73;;;1.28;93.94
31911;BME280;18457;52.432;16.914;2023-01-29T11:13:54;101123.62;;;1.18;94.42
31911;BME280;18457;52.432;16.914;2023-01-29T11:16:25;101138.17;;;1.31;94.36
31911;BME280;18457;52.432;16.914;2023-01-29T11:18:58;101130.50;;;1.31;94.17
31911;BME280;18457;52.432;16.914;2023-01-29T11:21:28;101124.66;;;1.17;94.68
31911;BME280;18457;52.432;16.914;2023-01-29T11:24:10;101123.30;;;1.21;94.72
31911;BME280;18457;52.432;16.914;2023-01-29T11:26:44;101113.38;;;1.15;94.99
31911;BME280;18457;52.432;16.914;2023-01-29T11:29:36;101105.52;;;1.20;94.69
31911;BME280;18457;52.432;16.914;2023-01-29T11:32:13;101113.10;;;1.24;94.55
31911;BME280;18457;52.432;16.914;2023-01-29T11:35:03;101117.86;;;1.16;94.81
31911;BME280;18457;52.432;16.914;2023-01-29T11:37:35;101115.20;;;1.10;95.25
31911;BME280;18457;52.432;16.914;2023-01-29T11:40:32;101104.77;;;1.18;95.35
31911;BME280;18457;52.432;16.914;2023-01-29T11:43:20;101089.71;;;1.36;94.51
31911;BME280;18457;52.432;16.914;2023-01-29T11:45:50;101083.43;;;1.41;94.13
31911;BME280;18457;52.432;16.914;2023-01-29T11:48:22;101075.90;;;1.31;94.35
31911;BME280;18457;52.432;16.914;2023-01-29T11:50:52;101060.19;;;1.30;94.72
31911;BME280;18457;52.432;16.914;2023-01-29T11:53:26;101058.21;;;1.37;94.52
31911;BME280;18457;52.432;16.914;2023-01-29T11:55:59;101061.90;;;1.42;94.54
31911;BME280;18457;52.432;16.914;2023-01-29T11:58:29;101061.36;;;1.41;94.08
31911;BME280;18457;52.432;16.914;2023-01-29T12:01:00;101059.48;;;1.37;94.51
31911;BME280;18457;52.432;16.914;2023-01-29T12:03:34;101049.98;;;1.35;94.92
31911;BME280;18457;52.432;16.914;2023-01-29T12:06:07;101041.90;;;1.46;94.31
31911;BME280;18457;52.432;16.914;2023-01-29T12:08:44;101038.36;;;1.47;94.30
31911;BME280;18457;52.432;16.914;2023-01-29T12:11:26;101036.77;;;1.55;93.97
31911;BME280;18457;52.432;16.914;2023-01-29T12:13:57;101042.67;;;1.49;94.21
31911;BME280;18457;52.432;16.914;2023-01-29T12:16:29;101041.05;;;1.41;94.79
31911;BME280;18457;52.432;16.914;2023-01-29T12:19:08;101042.55;;;1.43;95.05
31911;BME280;18457;52.432;16.914;2023-01-29T12:21:45;101033.92;;;1.48;94.73
31911;BME280;18457;52.432;16.914;2023-01-29T12:24:27;101029.94;;;1.52;94.42
31911;BME280;18457;52.432;16.914;2023-01-29T12:27:04;101028.80;;;1.50;94.64
31911;BME280;18457;52.432;16.914;2023-01-29T12:29:41;101023.28;;;1.49;94.90
31911;BME280;18457;52.432;16.914;2023-01-29T12:32:25;101031.50;;;1.59;94.67
31911;BME280;18457;52.432;16.914;2023-01-29T12:35:02;101026.98;;;1.56;94.34
31911;BME280;18457;52.432;16.914;2023-01-29T12:37:39;101027.26;;;1.44;95.07
31911;BME280;18457;52.432;16.914;2023-01-29T12:40:14;101018.40;;;1.38;95.54
31911;BME280;18457;52.432;16.914;2023-01-29T12:42:47;101012.27;;;1.50;95.40
31911;BME280;18457;52.432;16.914;2023-01-29T12:45:21;101014.23;;;1.75;98.17
31911;BME280;18457;52.432;16.914;2023-01-29T12:47:54;101017.61;;;1.75;95.49
31911;BME280;18457;52.432;16.914;2023-01-29T12:50:28;101009.23;;;1.75;94.79
31911;BME280;18457;52.432;16.914;2023-01-29T12:52:58;101010.57;;;1.79;94.59
31911;BME280;18457;52.432;16.914;2023-01-29T12:55:29;101008.45;;;1.80;94.90
31911;BME280;18457;52.432;16.914;2023-01-29T12:58:01;101001.48;;;1.70;94.55
31911;BME280;18457;52.432;16.914;2023-01-29T13:00:34;101008.78;;;1.70;94.29
31911;BME280;18457;52.432;16.914;2023-01-29T13:03:15;101009.00;;;1.64;94.70
31911;BME280;18457;52.432;16.914;2023-01-29T13:05:49;101002.98;;;1.66;94.81
31911;BME280;18457;52.432;16.914;2023-01-29T13:08:23;100995.14;;;1.57;95.26
31911;BME280;18457;52.432;16.914;2023-01-29T13:10:53;100995.92;;;1.69;94.95
31911;BME280;18457;52.432;16.914;2023-01-29T13:13:27;100984.05;;;1.79;94.40
31911;BME280;18457;52.432;16.914;2023-01-29T13:15:59;100975.08;;;1.76;94.50
31911;BME280;18457;52.432;16.914;2023-01-29T13:18:43;100971.33;;;1.85;94.24
31911;BME280;18457;52.432;16.914;2023-01-29T13:21:16;100972.16;;;1.82;93.80
31911;BME280;18457;52.432;16.914;2023-01-29T13:23:47;100965.47;;;1.77;94.24